createdAt,value
2023-03-17T00:01:54.717Z,101015.00
2023-03-17T00:04:24.381Z,101013.80
2023-03-17T00:06:53.072Z,101014.35
2023-03-17T00:09:22.516Z,101012.44
2023-03-17T00:11:50.463Z,101011.82
2023-03-17T00:14:18.157Z,101008.19
2023-03-17T00:16:50.136Z,101005.79
2023-03-17T00:19:22.848Z,101005.88
2023-03-17T00:21:50.154Z,101007.10
2023-03-17T00:24:17.358Z,101004.23
2023-03-17T00:26:44.612Z,101000.09
2023-03-17T00:29:12.139Z,101002.00
2023-03-17T00:31:39.766Z,101009.05
2023-03-17T00:34:08.171Z,101006.53
2023-03-17T00:36:36.085Z,101002.60
2023-03-17T00:39:06.097Z,101007.90
2023-03-17T00:41:33.191Z,101004.49
2023-03-17T00:44:00.216Z,100997.54
2023-03-17T00:46:35.656Z,101000.03
2023-03-17T00:49:09.771Z,101002.39
2023-03-17T00:51:36.795Z,101005.10
2023-03-17T00:54:04.152Z,100998.16
2023-03-17T00:56:31.585Z,100995.95
2023-03-17T00:58:58.709Z,100997.33
2023-03-17T01:01:25.809Z,100996.46
2023-03-17T01:03:52.938Z,101001.17
2023-03-17T01:06:20.325Z,100999.67
2023-03-17T01:08:48.178Z,101000.59
2023-03-17T01:11:19.006Z,100998.27
2023-03-17T01:13:47.853Z,100996.23
2023-03-17T01:16:15.842Z,100996.89
2023-03-17T01:18:43.730Z,100993.83
2023-03-17T01:21:11.079Z,100993.27
2023-03-17T01:23:38.330Z,100994.59
2023-03-17T01:26:06.684Z,100991.96
2023-03-17T01:28:34.211Z,100989.27
2023-03-17T01:31:02.879Z,100989.33
2023-03-17T01:33:30.167Z,100985.85
2023-03-17T01:35:57.647Z,100987.17
2023-03-17T01:38:25.826Z,100987.77
2023-03-17T01:40:53.785Z,100982.29
2023-03-17T01:43:29.599Z,100974.89
2023-03-17T01:46:20.990Z,100972.85
2023-03-17T01:49:03.787Z,100975.45
2023-03-17T01:51:36.800Z,100980.13
2023-03-17T01:54:08.931Z,100982.85
2023-03-17T01:56:38.087Z,100979.21
2023-03-17T01:59:10.167Z,100989.10
2023-03-17T02:01:41.286Z,100988.04
2023-03-17T02:04:09.230Z,100988.14
2023-03-17T02:06:42.114Z,100988.55
2023-03-17T02:09:14.771Z,100988.30
2023-03-17T02:11:45.661Z,100991.41
2023-03-17T02:14:12.816Z,100987.67
2023-03-17T02:16:41.124Z,100992.89
2023-03-17T02:19:09.272Z,100994.21
2023-03-17T02:21:54.687Z,100993.11
2023-03-17T02:24:31.028Z,100990.98
2023-03-17T02:27:03.951Z,100985.46
2023-03-17T02:29:35.065Z,100987.52
2023-03-17T02:32:02.834Z,100990.77
2023-03-17T02:34:30.232Z,100992.79
2023-03-17T02:36:58.656Z,100994.65
2023-03-17T02:39:26.132Z,100997.89
2023-03-17T02:41:53.360Z,101004.74
2023-03-17T02:44:20.501Z,101003.95
2023-03-17T02:46:47.763Z,101006.38
2023-03-17T02:49:15.803Z,101004.35
2023-03-17T02:51:42.853Z,101004.05
2023-03-17T02:54:09.948Z,101000.73
2023-03-17T02:56:37.998Z,101003.59
2023-03-17T02:59:06.305Z,101004.29
2023-03-17T03:01:34.133Z,101001.90
2023-03-17T03:04:01.459Z,100999.39
2023-03-17T03:06:28.561Z,100996.71
2023-03-17T03:08:55.673Z,100994.49
2023-03-17T03:11:23.326Z,100989.81
2023-03-17T03:13:50.515Z,100982.89
2023-03-17T03:16:17.686Z,100986.77
2023-03-17T03:18:44.838Z,100983.21
2023-03-17T03:21:11.936Z,100976.78
2023-03-17T03:23:39.086Z,100972.79
2023-03-17T03:26:06.188Z,100967.19
2023-03-17T03:28:33.529Z,100964.23
2023-03-17T03:31:00.831Z,100967.91
2023-03-17T03:33:28.586Z,100968.00
2023-03-17T03:35:55.759Z,100969.27
2023-03-17T03:38:23.222Z,100974.84
2023-03-17T03:40:50.309Z,100978.27
2023-03-17T03:43:23.240Z,100978.28
2023-03-17T03:45:51.815Z,100979.39
2023-03-17T03:48:19.315Z,100979.88
2023-03-17T03:50:46.702Z,100978.90
2023-03-17T03:53:14.514Z,100969.55
2023-03-17T03:55:42.061Z,100964.34
2023-03-17T03:58:09.140Z,100961.64
2023-03-17T04:00:37.345Z,100955.56
2023-03-17T04:03:04.520Z,100954.91
2023-03-17T04:05:31.905Z,100956.29
2023-03-17T04:07:59.098Z,100948.27
2023-03-17T04:10:26.565Z,100946.61
2023-03-17T04:12:53.766Z,100951.46
2023-03-17T04:15:21.234Z,100957.66
2023-03-17T04:17:48.301Z,100966.92
2023-03-17T04:20:17.120Z,100972.51
2023-03-17T04:22:44.344Z,100977.02
2023-03-17T04:25:14.403Z,100983.96
2023-03-17T04:27:42.992Z,100991.56
2023-03-17T04:30:13.934Z,100995.41
2023-03-17T04:32:41.939Z,100997.80
2023-03-17T04:35:14.047Z,100999.96
2023-03-17T04:37:41.169Z,101000.06
2023-03-17T04:40:10.082Z,100997.91
2023-03-17T04:42:37.916Z,101000.55
2023-03-17T04:45:06.503Z,101001.13
2023-03-17T04:47:33.997Z,100993.91
2023-03-17T04:50:01.656Z,100990.23
2023-03-17T04:52:28.799Z,100991.90
2023-03-17T04:54:56.014Z,100992.61
2023-03-17T04:57:24.631Z,100988.52
2023-03-17T04:59:51.927Z,100990.59
2023-03-17T05:02:19.336Z,100990.46
2023-03-17T05:04:46.817Z,100986.45
2023-03-17T05:07:14.271Z,100981.59
2023-03-17T05:09:42.070Z,100980.08
2023-03-17T05:12:10.037Z,100981.50
2023-03-17T05:14:37.548Z,100981.45
2023-03-17T05:17:04.896Z,100974.16
2023-03-17T05:19:31.978Z,100974.27
2023-03-17T05:21:59.430Z,100977.40
2023-03-17T05:24:27.165Z,100987.49
2023-03-17T05:26:54.330Z,100997.77
2023-03-17T05:29:21.724Z,100991.79
2023-03-17T05:31:48.863Z,100986.58
2023-03-17T05:34:16.131Z,100991.33
2023-03-17T05:36:43.761Z,100993.56
2023-03-17T05:39:13.402Z,100996.44
2023-03-17T05:41:41.626Z,101005.90
2023-03-17T05:44:09.345Z,101014.30
2023-03-17T05:46:36.622Z,101016.38
2023-03-17T05:49:03.935Z,101016.30
2023-03-17T05:51:30.975Z,101013.37
2023-03-17T05:53:58.490Z,101013.70
2023-03-17T05:56:27.421Z,101012.27
2023-03-17T05:58:54.490Z,101010.95
2023-03-17T06:01:21.893Z,101009.92
2023-03-17T06:03:50.151Z,101006.77
2023-03-17T06:06:17.360Z,101008.49
2023-03-17T06:08:45.093Z,101006.10
2023-03-17T06:11:12.208Z,100998.84
2023-03-17T06:13:39.327Z,101000.35
2023-03-17T06:16:07.123Z,100993.32
2023-03-17T06:18:34.346Z,100986.48
2023-03-17T06:21:02.002Z,100984.86
2023-03-17T06:23:29.076Z,100995.77
2023-03-17T06:25:56.477Z,101001.11
2023-03-17T06:28:24.230Z,101008.34
2023-03-17T06:30:51.364Z,101001.59
2023-03-17T06:33:19.334Z,100996.06
2023-03-17T06:35:46.913Z,100989.17
2023-03-17T06:38:14.179Z,100994.80
2023-03-17T06:40:41.842Z,100995.87
2023-03-17T06:43:09.119Z,101006.36
2023-03-17T06:45:36.218Z,101007.10
2023-03-17T06:48:03.752Z,101009.15
2023-03-17T06:50:30.988Z,101009.61
2023-03-17T06:52:58.153Z,101016.20
2023-03-17T06:55:25.265Z,101012.95
2023-03-17T06:57:52.638Z,101008.08
2023-03-17T07:00:20.192Z,101004.45
2023-03-17T07:02:47.548Z,101008.79
2023-03-17T07:05:14.872Z,101010.49
2023-03-17T07:07:41.964Z,101010.64
2023-03-17T07:10:13.851Z,101010.14
2023-03-17T07:12:41.451Z,101013.85
2023-03-17T07:15:09.435Z,101018.48
2023-03-17T07:17:36.607Z,101012.23
2023-03-17T07:20:04.039Z,101003.98
2023-03-17T07:22:31.147Z,101002.05
2023-03-17T07:24:58.313Z,100997.24
2023-03-17T07:27:26.546Z,100998.06
2023-03-17T07:29:53.972Z,100992.64
2023-03-17T07:32:21.099Z,100989.73
2023-03-17T07:34:48.550Z,100989.13
2023-03-17T07:37:15.804Z,100984.93
2023-03-17T07:39:43.772Z,100990.48
2023-03-17T07:42:15.441Z,100997.50
2023-03-17T07:44:42.759Z,100999.27
2023-03-17T07:47:11.520Z,100998.19
2023-03-17T07:49:42.068Z,101000.60
2023-03-17T07:52:11.627Z,101008.61
2023-03-17T07:54:41.551Z,101009.13
2023-03-17T07:57:10.227Z,101010.57
2023-03-17T07:59:38.381Z,101010.58
2023-03-17T08:02:05.877Z,101004.37
2023-03-17T08:04:33.118Z,101006.15
2023-03-17T08:07:00.535Z,101005.27
2023-03-17T08:09:27.672Z,101005.36
2023-03-17T08:11:54.775Z,101010.05
2023-03-17T08:14:22.011Z,101010.75
2023-03-17T08:16:49.325Z,101011.92
2023-03-17T08:19:16.657Z,101013.58
2023-03-17T08:21:43.858Z,101012.05
2023-03-17T08:24:11.156Z,101010.04
2023-03-17T08:26:38.418Z,101011.55
2023-03-17T08:29:05.752Z,101011.81
2023-03-17T08:31:34.105Z,101010.58
2023-03-17T08:34:02.824Z,101007.98
2023-03-17T08:36:30.024Z,101001.59
2023-03-17T08:38:57.172Z,100998.52
2023-03-17T08:41:27.056Z,101000.21
2023-03-17T08:43:54.999Z,101000.54
2023-03-17T08:46:25.481Z,100994.59
2023-03-17T08:48:54.297Z,100992.64
2023-03-17T08:51:24.582Z,100993.58
2023-03-17T08:53:53.529Z,100987.71
2023-03-17T08:56:21.305Z,100987.55
2023-03-17T08:58:49.073Z,100990.88
2023-03-17T09:01:17.388Z,100995.52
2023-03-17T09:03:45.734Z,101000.98
2023-03-17T09:06:13.877Z,100998.42
2023-03-17T09:08:45.067Z,101004.33
2023-03-17T09:11:16.749Z,100999.21
2023-03-17T09:13:46.691Z,100996.05
2023-03-17T09:16:15.004Z,100993.75
2023-03-17T09:18:42.522Z,100990.48
2023-03-17T09:21:12.294Z,100987.63
2023-03-17T09:23:39.892Z,100979.88
2023-03-17T09:26:07.405Z,100974.50
2023-03-17T09:28:34.619Z,100971.93
2023-03-17T09:31:05.357Z,100971.04
2023-03-17T09:33:32.604Z,100974.44
2023-03-17T09:35:59.735Z,100977.94
2023-03-17T09:38:28.654Z,100975.30
2023-03-17T09:41:20.786Z,100971.84
2023-03-17T09:44:04.573Z,100968.17
2023-03-17T09:46:56.175Z,100976.61
2023-03-17T09:49:48.559Z,100981.21
2023-03-17T09:52:18.839Z,100975.53
2023-03-17T09:54:49.722Z,100975.52
2023-03-17T09:57:22.689Z,100970.37
2023-03-17T09:59:55.265Z,100967.70
2023-03-17T10:02:27.828Z,100962.40
2023-03-17T10:04:55.242Z,100959.11
2023-03-17T10:07:58.111Z,100954.08
2023-03-17T10:10:42.650Z,100951.69
2023-03-17T10:13:14.181Z,100940.90
2023-03-17T10:15:50.643Z,100936.17
2023-03-17T10:18:22.042Z,100937.77
2023-03-17T10:20:54.659Z,100938.13
2023-03-17T10:23:27.841Z,100936.42
2023-03-17T10:25:59.931Z,100932.15
2023-03-17T10:28:32.706Z,100919.71
2023-03-17T10:31:14.065Z,100918.19
2023-03-17T10:33:41.223Z,100913.98
2023-03-17T10:36:10.741Z,100908.77
2023-03-17T10:38:37.959Z,100895.29
2023-03-17T10:41:13.598Z,100888.91
2023-03-17T10:43:48.741Z,100886.83
2023-03-17T10:46:24.534Z,100882.42
2023-03-17T10:48:58.377Z,100881.42
2023-03-17T10:51:32.164Z,100871.38
2023-03-17T10:54:09.818Z,100876.95
2023-03-17T10:56:39.985Z,100866.41
2023-03-17T10:59:15.269Z,100862.05
2023-03-17T11:01:49.902Z,100865.16
2023-03-17T11:04:38.469Z,100867.27
2023-03-17T11:07:12.612Z,100866.01
2023-03-17T11:09:39.790Z,100863.87
2023-03-17T11:12:23.020Z,100861.75
2023-03-17T11:14:50.272Z,100855.45
2023-03-17T11:17:45.609Z,100862.20
2023-03-17T11:20:42.287Z,100865.34
2023-03-17T11:23:28.167Z,100864.18
2023-03-17T11:26:17.683Z,100864.42
2023-03-17T11:28:51.755Z,100868.63
2023-03-17T11:31:34.305Z,100862.52
2023-03-17T11:34:30.782Z,100856.43
2023-03-17T11:37:07.056Z,100845.63
2023-03-17T11:40:19.600Z,100838.16
2023-03-17T11:43:11.551Z,100841.02
2023-03-17T11:45:45.444Z,100834.45
2023-03-17T11:48:21.460Z,100827.91
2023-03-17T11:51:14.309Z,100829.14
2023-03-17T11:53:59.640Z,100825.84
2023-03-17T11:56:32.859Z,100820.94
2023-03-17T11:59:05.150Z,100813.50
2023-03-17T12:01:54.946Z,100816.08
2023-03-17T12:04:37.974Z,100805.50
2023-03-17T12:07:29.116Z,100804.14
2023-03-17T12:10:15.734Z,100799.70
2023-03-17T12:12:50.834Z,100796.30
2023-03-17T12:15:34.823Z,100784.25
2023-03-17T12:18:26.604Z,100785.59
2023-03-17T12:20:57.538Z,100787.30
2023-03-17T12:23:39.876Z,100782.21
2023-03-17T12:26:16.517Z,100777.44
2023-03-17T12:28:57.392Z,100779.68
2023-03-17T12:31:33.467Z,100773.79
2023-03-17T12:34:24.236Z,100767.52
2023-03-17T12:36:52.347Z,100763.02
2023-03-17T12:39:29.013Z,100760.44
2023-03-17T12:42:02.304Z,100753.05
2023-03-17T12:44:47.577Z,100738.70
2023-03-17T12:47:33.434Z,100721.38
2023-03-17T12:50:10.764Z,100717.40
2023-03-17T12:53:09.447Z,100720.11
2023-03-17T12:55:37.051Z,100721.02
2023-03-17T12:58:15.088Z,100716.38
2023-03-17T13:00:56.367Z,100705.70
2023-03-17T13:03:23.874Z,100700.59
2023-03-17T13:05:55.269Z,100698.09
2023-03-17T13:08:28.277Z,100693.13
2023-03-17T13:11:19.768Z,100689.78
2023-03-17T13:13:50.101Z,100691.05
2023-03-17T13:16:39.506Z,100683.95
2023-03-17T13:19:17.543Z,100688.50
2023-03-17T13:21:50.645Z,100688.09
2023-03-17T13:24:18.660Z,100695.02
2023-03-17T13:27:04.710Z,100687.06
2023-03-17T13:29:32.360Z,100686.41
2023-03-17T13:32:31.995Z,100693.32
2023-03-17T13:35:02.355Z,100684.46
2023-03-17T13:37:35.819Z,100678.14
2023-03-17T13:40:45.801Z,100673.50
2023-03-17T13:43:37.274Z,100671.02
2023-03-17T13:46:39.879Z,100667.96
2023-03-17T13:49:26.951Z,100652.72
2023-03-17T13:52:16.302Z,100659.57
2023-03-17T13:54:58.881Z,100659.54
2023-03-17T13:57:29.234Z,100664.84
2023-03-17T14:00:29.236Z,100673.67
2023-03-17T14:03:30.325Z,100680.36
2023-03-17T14:06:01.373Z,100682.64
2023-03-17T14:08:46.507Z,100687.84
2023-03-17T14:11:38.420Z,100673.61
2023-03-17T14:14:31.161Z,100677.55
2023-03-17T14:17:07.178Z,100668.34
2023-03-17T14:19:34.857Z,100665.06
2023-03-17T14:22:04.696Z,100673.05
2023-03-17T14:24:33.936Z,100670.99
2023-03-17T14:27:08.095Z,100666.35
2023-03-17T14:29:37.318Z,100659.36
2023-03-17T14:32:07.430Z,100651.70
2023-03-17T14:34:34.591Z,100651.42
2023-03-17T14:37:03.666Z,100650.48
2023-03-17T14:39:30.812Z,100645.87
2023-03-17T14:42:03.054Z,100642.39
2023-03-17T14:44:40.864Z,100644.48
2023-03-17T14:47:20.013Z,100661.39
2023-03-17T14:49:48.288Z,100659.77
2023-03-17T14:52:19.477Z,100655.75
2023-03-17T14:54:51.556Z,100650.50
2023-03-17T14:57:23.007Z,100658.63
2023-03-17T15:00:01.908Z,100652.79
2023-03-17T15:02:37.961Z,100649.11
2023-03-17T15:05:17.482Z,100645.27
2023-03-17T15:07:44.609Z,100643.88
2023-03-17T15:10:18.129Z,100637.69
2023-03-17T15:12:46.792Z,100635.64
2023-03-17T15:15:27.235Z,100635.60
2023-03-17T15:17:56.933Z,100633.64
2023-03-17T15:20:25.090Z,100629.71
2023-03-17T15:22:58.361Z,100621.88
2023-03-17T15:25:46.648Z,100629.83
2023-03-17T15:28:16.778Z,100625.85
2023-03-17T15:30:48.065Z,100633.03
2023-03-17T15:33:29.539Z,100625.73
2023-03-17T15:36:00.132Z,100625.39
2023-03-17T15:38:27.764Z,100623.59
2023-03-17T15:40:55.418Z,100621.62
2023-03-17T15:43:22.823Z,100619.27
2023-03-17T15:46:07.719Z,100614.94
2023-03-17T15:48:36.810Z,100620.23
2023-03-17T15:51:06.061Z,100616.85
2023-03-17T15:53:33.311Z,100620.36
2023-03-17T15:56:00.487Z,100624.73
2023-03-17T15:58:27.714Z,100611.22
2023-03-17T16:00:57.559Z,100621.88
2023-03-17T16:03:29.700Z,100625.34
2023-03-17T16:05:57.859Z,100628.11
2023-03-17T16:08:25.118Z,100630.94
2023-03-17T16:10:52.377Z,100626.55
2023-03-17T16:13:19.852Z,100622.48
2023-03-17T16:15:56.459Z,100625.94
2023-03-17T16:18:36.972Z,100624.70
2023-03-17T16:21:05.384Z,100628.52
2023-03-17T16:23:36.898Z,100626.12
2023-03-17T16:26:14.932Z,100622.42
2023-03-17T16:28:45.038Z,100625.45
2023-03-17T16:31:19.130Z,100624.73
2023-03-17T16:33:46.414Z,100621.63
2023-03-17T16:36:18.618Z,100628.95
2023-03-17T16:38:46.587Z,100627.20
2023-03-17T16:41:17.242Z,100624.85
2023-03-17T16:43:46.854Z,100625.05
2023-03-17T16:46:14.135Z,100625.96
2023-03-17T16:48:41.305Z,100625.52
2023-03-17T16:51:08.326Z,100625.91
2023-03-17T16:53:36.090Z,100627.27
2023-03-17T16:56:03.714Z,100622.56
2023-03-17T16:58:34.546Z,100628.10
2023-03-17T17:01:04.429Z,100625.41
2023-03-17T17:03:31.920Z,100621.80
2023-03-17T17:05:59.120Z,100619.17
2023-03-17T17:08:26.270Z,100617.56
2023-03-17T17:10:53.404Z,100621.88
2023-03-17T17:13:20.666Z,100625.29
2023-03-17T17:15:47.873Z,100623.09
2023-03-17T17:18:18.299Z,100624.52
2023-03-17T17:20:46.332Z,100620.95
2023-03-17T17:23:16.404Z,100618.96
2023-03-17T17:25:44.049Z,100620.39
2023-03-17T17:28:13.061Z,100614.16
2023-03-17T17:30:45.036Z,100612.57
2023-03-17T17:33:12.716Z,100612.23
2023-03-17T17:35:41.312Z,100616.95
2023-03-17T17:38:17.752Z,100620.48
2023-03-17T17:40:44.887Z,100613.15
2023-03-17T17:43:12.009Z,100615.75
2023-03-17T17:45:39.280Z,100625.17
2023-03-17T17:48:06.355Z,100627.48
2023-03-17T17:50:34.057Z,100628.35
2023-03-17T17:53:05.705Z,100631.50
2023-03-17T17:55:34.000Z,100630.35
2023-03-17T17:58:01.249Z,100626.36
2023-03-17T18:00:29.009Z,100618.44
2023-03-17T18:02:56.733Z,100613.16
2023-03-17T18:05:25.034Z,100606.23
2023-03-17T18:07:52.108Z,100611.23
2023-03-17T18:10:22.639Z,100607.92
2023-03-17T18:12:49.924Z,100608.98
2023-03-17T18:15:17.142Z,100605.90
2023-03-17T18:17:44.259Z,100601.05
2023-03-17T18:20:13.847Z,100602.23
2023-03-17T18:22:41.053Z,100599.07
2023-03-17T18:25:10.437Z,100599.35
2023-03-17T18:27:38.547Z,100601.98
2023-03-17T18:30:07.688Z,100608.58
2023-03-17T18:32:35.550Z,100610.36
2023-03-17T18:35:08.908Z,100613.36
2023-03-17T18:37:37.176Z,100616.38
2023-03-17T18:40:14.256Z,100616.23
2023-03-17T18:42:41.731Z,100614.49
2023-03-17T18:45:10.431Z,100614.09
2023-03-17T18:47:39.115Z,100613.45
2023-03-17T18:50:08.145Z,100607.50
2023-03-17T18:52:37.504Z,100612.12
2023-03-17T18:55:05.309Z,100605.58
2023-03-17T18:57:32.445Z,100605.52
2023-03-17T18:59:59.559Z,100598.23
2023-03-17T19:02:26.800Z,100602.67
2023-03-17T19:04:53.997Z,100607.22
2023-03-17T19:07:22.447Z,100603.69
2023-03-17T19:09:49.708Z,100605.06
2023-03-17T19:12:16.834Z,100605.66
2023-03-17T19:14:44.021Z,100605.42
2023-03-17T19:17:11.235Z,100605.15
2023-03-17T19:19:38.741Z,100602.63
2023-03-17T19:22:06.377Z,100604.20
2023-03-17T19:24:37.777Z,100603.40
2023-03-17T19:27:05.720Z,100601.86
2023-03-17T19:29:33.518Z,100599.87
2023-03-17T19:32:00.824Z,100599.62
2023-03-17T19:34:28.225Z,100601.27
2023-03-17T19:36:55.765Z,100600.62
2023-03-17T19:39:23.426Z,100601.20
2023-03-17T19:41:55.046Z,100601.71
2023-03-17T19:44:22.493Z,100598.50
2023-03-17T19:46:49.689Z,100603.30
2023-03-17T19:49:17.798Z,100599.10
2023-03-17T19:51:44.862Z,100603.15
2023-03-17T19:54:12.004Z,100605.40
2023-03-17T19:56:39.188Z,100602.08
2023-03-17T19:59:07.514Z,100597.27
2023-03-17T20:01:37.905Z,100597.52
2023-03-17T20:04:07.174Z,100594.40
2023-03-17T20:06:34.819Z,100596.79
2023-03-17T20:09:08.817Z,100598.48
2023-03-17T20:11:36.309Z,100602.31
2023-03-17T20:14:03.473Z,100603.41
2023-03-17T20:16:33.699Z,100605.30
2023-03-17T20:19:01.594Z,100603.44
2023-03-17T20:21:28.849Z,100600.63
2023-03-17T20:23:56.975Z,100598.99
2023-03-17T20:26:24.682Z,100596.09
2023-03-17T20:28:51.804Z,100588.48
2023-03-17T20:31:19.523Z,100590.50
2023-03-17T20:33:46.727Z,100592.70
2023-03-17T20:36:14.182Z,100593.03
2023-03-17T20:38:43.811Z,100595.64
2023-03-17T20:41:14.444Z,100591.60
2023-03-17T20:43:41.996Z,100594.95
2023-03-17T20:46:23.927Z,100591.67
2023-03-17T20:48:58.917Z,100596.95
2023-03-17T20:51:27.019Z,100599.39
2023-03-17T20:53:55.252Z,100598.10
2023-03-17T20:56:23.667Z,100601.95
2023-03-17T20:58:53.343Z,100602.42
2023-03-17T21:01:21.551Z,100604.20
2023-03-17T21:03:50.159Z,100605.02
2023-03-17T21:06:18.410Z,100601.05
2023-03-17T21:08:46.313Z,100600.41
2023-03-17T21:11:17.447Z,100597.46
2023-03-17T21:13:44.819Z,100591.73
2023-03-17T21:16:18.209Z,100589.62
2023-03-17T21:18:45.620Z,100586.39
2023-03-17T21:21:12.888Z,100591.88
2023-03-17T21:23:41.354Z,100586.11
2023-03-17T21:26:11.975Z,100587.48
2023-03-17T21:28:41.528Z,100585.77
2023-03-17T21:31:09.684Z,100587.13
2023-03-17T21:33:37.241Z,100584.91
2023-03-17T21:36:04.982Z,100577.56
2023-03-17T21:38:32.769Z,100569.66
2023-03-17T21:41:21.537Z,100565.34
2023-03-17T21:43:48.862Z,100567.65
2023-03-17T21:46:16.102Z,100566.95
2023-03-17T21:48:44.192Z,100563.67
2023-03-17T21:51:11.543Z,100566.51
2023-03-17T21:53:38.871Z,100561.60
2023-03-17T21:56:06.497Z,100559.05
2023-03-17T21:58:33.610Z,100562.09
2023-03-17T22:01:01.559Z,100562.64
2023-03-17T22:03:29.151Z,100562.88
2023-03-17T22:05:56.763Z,100565.77
2023-03-17T22:08:23.824Z,100562.67
2023-03-17T22:10:52.200Z,100558.27
2023-03-17T22:13:19.360Z,100556.17
2023-03-17T22:15:46.455Z,100551.95
2023-03-17T22:18:13.593Z,100552.59
2023-03-17T22:20:40.682Z,100547.04
2023-03-17T22:23:07.859Z,100549.23
2023-03-17T22:25:35.000Z,100546.66
2023-03-17T22:28:02.129Z,100546.27
2023-03-17T22:30:29.234Z,100540.67
2023-03-17T22:32:56.693Z,100540.48
2023-03-17T22:35:25.151Z,100549.88
2023-03-17T22:37:52.282Z,100546.77
2023-03-17T22:40:19.548Z,100542.70
2023-03-17T22:42:47.111Z,100542.70
2023-03-17T22:45:14.694Z,100545.61
2023-03-17T22:47:41.844Z,100543.17
2023-03-17T22:50:09.651Z,100547.78
2023-03-17T22:52:37.315Z,100545.36
2023-03-17T22:55:04.883Z,100547.00
2023-03-17T22:57:32.090Z,100543.18
2023-03-17T22:59:59.363Z,100543.68
2023-03-17T23:02:26.671Z,100543.71
2023-03-17T23:04:53.770Z,100537.56
2023-03-17T23:07:20.844Z,100536.00
2023-03-17T23:09:48.043Z,100541.04
2023-03-17T23:12:15.221Z,100540.35
2023-03-17T23:14:42.319Z,100542.14
2023-03-17T23:17:09.519Z,100541.59
2023-03-17T23:19:36.740Z,100544.91
2023-03-17T23:22:03.950Z,100545.15
2023-03-17T23:24:30.925Z,100541.46
2023-03-17T23:26:58.005Z,100535.02
2023-03-17T23:29:25.176Z,100536.40
2023-03-17T23:31:52.195Z,100535.54
2023-03-17T23:34:19.227Z,100533.79
2023-03-17T23:36:46.409Z,100527.64
2023-03-17T23:39:13.492Z,100526.89
2023-03-17T23:41:41.536Z,100515.36
2023-03-17T23:44:10.248Z,100517.69
2023-03-17T23:46:39.281Z,100519.23
2023-03-17T23:49:07.492Z,100515.70
2023-03-17T23:51:34.616Z,100515.86
2023-03-17T23:54:01.870Z,100517.98
2023-03-17T23:56:28.967Z,100515.04
2023-03-17T23:58:56.076Z,100513.79
